Tiempo atmosférico en la estación meteorológica de Salamanca Aeropuerto, Salamanca (790 m.)



Fecha
DESCASC
Temp. máxima en grados centígrados (hora)
DESCASC
Temp. mínima en grados centígrados (hora)
DESCASC
Temp. media en grados centígrados
DESCASC
Racha de viento máxima en m/sg (hora)
DESCASC
Velocidad máxima media en intervalos de 10 minutos(hora)
DESCASC
Precipitaciones diarias en mm
DESCASC
Precipitaciones de 00:00 a 06:00 en mm
DESCASC
Precipitaciones de 06:00 a 12:00 en mm
DESCASC
Precipitaciones de 12:00 a 18:00 en mm
DESCASC
Precipitaciones de 18:00 a 24:00 en mm
DESCASC
20-09-2020 21.6 (18:30) 11.6 (23:50) 16.6 11.39 (16:50) 7.78 (17:00) 9.9 0.3 3.9 5.7 0
19-09-2020 20.8 (16:20) 13.3 (01:40) 17 13.33 (07:40) 9.17 (07:40) 2.1 1.5 0 0 0.6
17-09-2020 29 (16:10) 16.1 (00:00) 22.6 12.5 (16:10) 8.89 (18:50) 2 0 0 0 2
16-09-2020 29.6 (17:00) 9.1 (08:20) 19.4 7.22 (17:00) 4.44 (20:10) 0 0 0 0 0
15-09-2020 28.6 (15:50) 11.5 (00:00) 20.1 9.17 (17:20) 6.11 (17:20) 3.9 3.9 0 0 0
14-09-2020 31.4 (17:20) 13.7 (00:00) 22.5 10.83 (18:00) 6.67 (17:50) 0.3 0 0 0.1 0.2
13-09-2020 34.3 (17:20) 10.6 (00:00) 22.4 6.11 (00:10) 4.72 (00:10) 0 0 0 0 0
12-09-2020 32.3 (16:00) 9.5 (07:50) 20.9 9.72 (13:20) 6.39 (13:20) 0 0 0 0 0
11-09-2020 30.8 (18:40) 7.6 (00:00) 19.2 6.11 (14:00) 3.89 (14:00) 0 0 0 0 0
10-09-2020 29.8 (18:00) 7.5 (00:00) 18.6 6.11 (13:00) 4.17 (13:00) 0 0 0 0 0
09-09-2020 29.4 (17:00) 6.4 (07:10) 17.9 5.83 (15:30) 2.78 (19:20) 0 0 0 0 0
08-09-2020 26.9 (17:40) 6.5 (00:00) 16.7 8.33 (00:30) 6.39 (00:40) 0 0 0 0 0
07-09-2020 24.6 (17:40) 9.5 (07:20) 17.1 11.39 (10:40) 8.33 (10:40) 0 0 0 0 0
06-09-2020 30.5 (18:00) 12.1 (00:00) 21.3 8.89 (23:30) 5.83 (00:10) 0 0 0 0 0
05-09-2020 33.3 (18:00) 10 (00:00) 21.6 9.17 (22:00) 6.39 (22:00) 0 0 0 0 0
04-09-2020 34 (18:10) 8.8 (00:00) 21.4 4.72 (14:50) 2.78 (19:10) 0 0 0 0 0
03-09-2020 31.6 (18:40) 7.1 (00:00) 19.4 6.67 (12:50) 4.17 (12:30) 0 0 0 0 0
02-09-2020 28.7 (17:40) 7.2 (00:00) 18 7.22 (00:50) 5.28 (00:50) -- 0 -- 0 0
01-09-2020 28 (18:00) 10.2 (00:00) 19.1 5.83 (14:40) 3.61 (17:50) 0 0 0 0 0
31-08-2020 26.2 (18:40) 4.2 (00:00) 15.2 7.78 (14:40) 4.17 (17:10) 0 0 0 0 0
30-08-2020 -- (--) -- (--) -- -- (--) -- (--) -- 0 0 -- 0
29-08-2020 22 (16:00) 7.6 (00:00) 14.8 10.28 (16:40) 6.39 (16:20) 0 0 0 0 0
28-08-2020 27.2 (15:50) 13.6 (00:00) 20.4 11.67 (19:50) 7.22 (19:50) 0 0 0 0 0
27-08-2020 34.1 (17:40) 12.7 (00:00) 23.4 8.33 (19:50) 5 (19:50) 0 0 0 0 0
26-08-2020 34.5 (18:10) 10.5 (00:00) 22.5 6.11 (15:00) 3.89 (16:50) 0 0 0 0 0
25-08-2020 34.6 (18:00) 10 (00:00) 22.3 7.78 (16:10) 5 (17:30) 0 0 0 0 0
24-08-2020 32 (18:20) 9.4 (07:30) 20.7 7.22 (13:50) 4.44 (14:00) 0 0 0 0 0
23-08-2020 30.1 (18:00) 7 (00:00) 18.6 7.22 (12:20) 4.72 (12:20) 0 0 0 0 0

Gráficas

Temp. máximas Temp. mínimas Temp. medias Precipitaciones Rachas de viento máximas Velocidades máximas media en intervalos de 10 minutos

Datos horarios

Fecha y hora oficial Temperatura (ºC) Velocidad del viento (km/h) Dirección del viento Racha (km/h) Dirección de racha Precipitación (mm) Presión (hPa) Tendencia (hPa) Humedad (%)
2020-09-21 23:00:00 12 0 Calma 11 Oeste 0 927.5 0.5 84
2020-09-21 22:00:00 -- -- -- -- -- 0 927.5 0.7 --
2020-09-21 21:00:00 13.9 10 Oeste 17 Oeste 0 927.2 0.4 75
2020-09-21 20:00:00 18.5 11 Noroeste 22 Oeste 0 927 -0.1 49
2020-09-21 19:00:00 21.3 15 Oeste 26 Oeste 0 926.8 -0.6 39
2020-09-21 18:00:00 22.7 12 Noroeste 26 Oeste 0 926.8 -1 36
2020-09-21 17:00:00 22.2 12 Noroeste 24 Oeste 0 927.1 -1.2 37
2020-09-21 16:00:00 21.8 13 Noroeste 30 Oeste 0 927.4 -1.3 39
2020-09-21 15:00:00 20.3 8 Norte 22 Noroeste 0 927.8 -1.3 49
2020-09-21 14:00:00 19.9 6 Oeste 17 Sudoeste 0 928.3 -0.7 49
2020-09-21 13:00:00 18.6 5 Noroeste 15 Sudoeste 0 928.7 -0.2 62
2020-09-21 12:00:00 16.7 9 Noroeste 17 Oeste 0 929.1 0.5 71
2020-09-21 11:00:00 14.6 9 Oeste 15 Oeste 0 929 0.8 85
2020-09-21 10:00:00 11.3 0 Calma 8 Noroeste 0 928.9 -- 97
2020-09-21 09:00:00 7.7 0 Calma 5 Sur 0 928.6 -- 98
2020-09-21 08:00:00 7.9 0 Calma 5 Sudoeste 0 928.2 -- 97
2020-09-21 07:00:00 8.9 0 Calma -- -- 0 927.8 -- 97
2020-09-21 06:00:00 8.9 4 Nordeste 9 Sudoeste 0 927.9 -- 97
2020-09-21 05:00:00 9.8 8 Sudoeste 11 Sudoeste 0 927.9 -- 94
2020-09-21 04:00:00 10.6 9 Sudoeste 17 Sudoeste 0 928.3 -- 94
2020-09-21 03:00:00 10.6 6 Sudoeste 13 Sur 0 928.7 -- 91
2020-09-21 02:00:00 11 2 Sudeste 8 Sudeste 0 928.9 -- 90
2020-09-21 01:00:00 11.5 6 Oeste 15 Noroeste 0 928.9 -- 89
2020-09-21 00:00:00 11.7 14 Noroeste 17 Noroeste 0 928.8 -- 90
2020-09-20 23:00:00 12.7 9 Oeste 13 Oeste 0 928.7 -- 85
2020-09-20 22:00:00 14 12 Oeste 15 Oeste 0 928.3 -- 86
2020-09-20 21:00:00 16.4 5 Oeste 11 Norte 0 927.7 -- 82
2020-09-20 20:00:00 18.3 11 Norte 35 Oeste 0 927.2 -- 73
2020-09-20 19:00:00 21 18 Oeste 39 Noroeste 0 926.7 -- 59
2020-09-20 18:00:00 21.3 23 Oeste 41 Oeste 0 926.4 -- 62
2020-09-20 17:00:00 19.9 28 Oeste 41 Noroeste 0 926.6 -- 68
2020-09-20 16:00:00 18.9 20 Oeste 39 Oeste 0 926.7 -- 77
2020-09-20 15:00:00 17.9 21 Oeste 35 Oeste 0.3 927 -- 90
2020-09-20 14:00:00 19.1 23 Oeste 35 Sudoeste 0 927.2 -- 84
2020-09-20 13:00:00 15.4 16 Oeste 28 Oeste 5.4 927.5 -- 95
2020-09-20 12:00:00 17.4 15 Oeste 32 Oeste 0 927.4 -- 83
2020-09-20 11:00:00 15.5 13 Oeste 28 Oeste 1.5 927.1 -- 94
2020-09-20 10:00:00 15.2 8 Oeste 13 Oeste 1.2 926.8 -- 97
2020-09-20 09:00:00 15 8 Sudoeste 22 Sudoeste 0 926.6 -- 95
2020-09-20 08:00:00 14.9 17 Sudoeste 28 Sudoeste 0 926.1 -- 93
2020-09-20 07:00:00 14.9 9 Sudoeste 15 Sudoeste 1.2 926.1 -- 94
2020-09-20 06:00:00 15 10 Sudoeste 15 Sudoeste 0 926.2 -- 94
2020-09-20 05:00:00 14.9 10 Sudoeste 18 Sudoeste 0.1 926.2 -- 93
2020-09-20 04:00:00 14.9 11 Sudoeste 17 Sudoeste 0 926.5 -- 93
2020-09-20 03:00:00 15 10 Sudoeste 15 Sur 0 926.9 -- 94
2020-09-20 02:00:00 14.7 9 Sudoeste 18 Sudoeste 0.2 927 -- 95
2020-09-20 01:00:00 14.9 11 Sudoeste 18 Sudoeste 0 927.1 -- 92
2020-09-20 00:00:00 14.7 12 Sudoeste 15 Sudoeste 0 927.2 -- 93
2020-09-19 23:00:00 14.9 10 Sudoeste 13 Sudoeste 0.3 927.3 -- 93
2020-09-19 22:00:00 15.1 8 Sudoeste 13 Sudoeste 0 926.8 -- 90
2020-09-19 21:00:00 15 10 Sudoeste 21 Oeste 0 926.4 -- 89
2020-09-19 20:00:00 15.3 17 Oeste 30 Sudoeste 0 926 -- 86
2020-09-19 19:00:00 15.9 14 Sudoeste 35 Oeste 0.3 925.6 -- 87
2020-09-19 18:00:00 18.1 26 Sudoeste 39 Sudoeste 0 925.3 -- 66
2020-09-19 17:00:00 18.9 26 Sudoeste 39 Sudoeste 0 925.1 -- 65
2020-09-19 16:00:00 20 24 Oeste 42 Oeste 0 924.8 -- 57
2020-09-19 15:00:00 18.8 24 Oeste 42 Oeste 0 925.2 -- 67
2020-09-19 14:00:00 17.7 23 Oeste 42 Oeste 0 925.3 -- 70
2020-09-19 13:00:00 18 23 Oeste 42 Oeste 0 925.2 -- 73
2020-09-19 12:00:00 17.7 26 Oeste 46 Oeste 0 925 -- 74
2020-09-19 11:00:00 15.6 23 Oeste 41 Oeste 0 924.5 -- 85
2020-09-19 10:00:00 14.8 25 Oeste 42 Sudoeste 0 923.7 -- 88
2020-09-19 09:00:00 14.3 29 Oeste 42 Oeste 0 922.7 -- 90
2020-09-19 08:00:00 14.4 25 Sudoeste 48 Oeste 0 921.7 -- 90
2020-09-19 07:00:00 14.5 23 Sudoeste 42 Sudoeste 0 920.7 -- 93
2020-09-19 06:00:00 14.5 25 Sudoeste 46 Sudoeste 0.6 920.1 -- 94
2020-09-19 05:00:00 14.2 21 Sur 35 Sur 0.7 920.1 -- 93
2020-09-19 04:00:00 14.5 16 Sur 26 Sur 0.2 920.5 -- 88
2020-09-19 03:00:00 14.4 14 Sudoeste 26 Sudoeste 0 921 -- 89
2020-09-19 02:00:00 13.4 10 Sudeste 15 Sudeste 0 921.1 -- 91
2020-09-19 01:00:00 13.5 6 Sudeste 11 Sudeste 0 921.2 -- 92
2020-09-19 00:00:00 14 8 Este 11 Este 0.5 921.5 -- 91
2020-09-18 23:00:00 14.7 8 Sur 17 Sur 0.2 921.4 -- 82
2020-09-18 22:00:00 14.4 9 Sudeste 13 Sudeste 0 921 -- 85
2020-09-18 21:00:00 14.7 9 Sudeste 13 Sur 0 920.8 -- 81
2020-09-18 20:00:00 15.3 11 Sudeste 26 Sur 0 920.5 -- 76
2020-09-18 19:00:00 16.1 16 Sudeste 26 Sur 0 920.7 -- 77
2020-09-18 18:00:00 16.3 14 Sudeste 39 Sudoeste 0.2 920.9 -- 81
2020-09-18 17:00:00 21.4 20 Sudoeste 39 Sudoeste 0 920.6 -- 43
2020-09-18 16:00:00 22.3 12 Sur 24 Sudoeste 0 920.3 -- 44
2020-09-18 15:00:00 21.7 13 Sudoeste 33 Sur 0 921.3 -- 47
2020-09-18 14:00:00 21.8 12 Sur 22 Sudoeste 0 921.6 -- 48
2020-09-18 13:00:00 19.8 11 Sur 24 Sudoeste 0 921.9 -- 52
2020-09-18 12:00:00 18 18 Sudoeste 26 Sudoeste 0 922.1 -- 60
2020-09-18 11:00:00 17.5 7 Sudeste 15 Sudoeste 0 922.2 -- 76
2020-09-18 10:00:00 15.6 8 Sudoeste 17 Sur 0 921.6 -- 85
2020-09-18 09:00:00 13.4 9 Sur 21 Sur 0 921.4 -- 92
2020-09-18 08:00:00 14.1 8 Sudeste 13 Este 0 920.5 -- 94
2020-09-18 07:00:00 15 4 Sudeste 11 Sudeste 2.1 920.4 -- 96
2020-09-18 06:00:00 14.9 8 Norte 13 Noroeste 0 920.3 -- 96
2020-09-18 05:00:00 15.4 6 Sudeste 18 Este 0.8 920.1 -- 95
2020-09-18 04:00:00 14.8 11 Sudeste 15 Sudeste 0 920.9 -- 94
2020-09-18 03:00:00 14.6 6 Este 11 Noroeste 0 920.8 -- 93
2020-09-18 02:00:00 14.4 10 Noroeste 18 Sudoeste 0 921.4 -- 92
2020-09-18 01:00:00 16.1 11 Sur 18 Sur 0 921.5 -- 87
2020-09-18 00:00:00 16.2 13 Sur 21 Sur 0.3 922 -- 87
2020-09-17 23:00:00 16.6 17 Sudeste 30 Sudeste 1.1 922.1 -- 86
2020-09-17 22:00:00 17.4 9 Noroeste 28 Sur 0 921.3 -- 75
2020-09-17 21:00:00 20.3 22 Sur 42 Sur 0.6 921.2 -- 67
2020-09-17 20:00:00 23.5 25 Sur 41 Sudoeste 0 920.4 -- 50
2020-09-17 19:00:00 25.3 31 Sur 45 Sur 0 920.6 -- 44
2020-09-17 18:00:00 27.3 27 Sur 45 Sur 0 920.9 -- 40
2020-09-17 17:00:00 27.9 22 Sur 45 Sur 0 921.1 -- 39
2020-09-17 16:00:00 28.5 22 Sur 35 Sur 0 921.3 -- 34
2020-09-17 15:00:00 27.1 14 Sur 28 Sur 0 921.9 -- 37
2020-09-17 14:00:00 26.8 10 Sur 32 Sudeste 0 922.5 -- 39
2020-09-17 13:00:00 25.6 13 Sudeste 28 Sur 0 922.9 -- 42
2020-09-17 12:00:00 25 9 Sur 18 Sudeste 0 923.6 -- 46
2020-09-17 11:00:00 22.8 8 Sur 18 Sur 0 923.7 -- 53
2020-09-17 10:00:00 19.9 6 Sur 13 Sur 0 924 -- 64
2020-09-17 09:00:00 18.4 10 Sudeste 15 Sur 0 924 -- 69
2020-09-17 08:00:00 17.3 9 Sudeste 13 Sudeste 0 923.7 -- 73
2020-09-17 07:00:00 18 10 Sudeste 13 Sudeste 0 923.6 -- 69
2020-09-17 06:00:00 17.9 6 Sudeste 11 Sudeste 0 923.5 -- 71
2020-09-17 05:00:00 17.5 0 Calma 11 Este 0 924.1 -- 72
2020-09-17 04:00:00 18.2 7 Este 17 Sudeste 0 924.5 -- 66
2020-09-17 03:00:00 18.6 3 Noroeste 22 Sudeste 0 925.2 -- 64
2020-09-17 02:00:00 19.8 10 Sudeste 26 Sudeste 0 925.6 -- 56
2020-09-17 01:00:00 20 14 Este 21 Este 0 926.1 -- 56
2020-09-17 00:00:00 21.5 6 Sur 24 Sudoeste 0 925.9 -- 46
2020-09-16 23:00:00 20.1 5 Sudeste 13 Este 0 926 -- 68
2020-09-16 22:00:00 20.8 0 Calma 9 Oeste 0 925.7 -- 60
2020-09-16 21:00:00 23.2 9 Sudoeste 22 Sudoeste 0 925.4 -- 43
2020-09-16 20:00:00 25.2 15 Sudoeste 22 Sudoeste 0 924.9 -- 39
2020-09-16 19:00:00 26.9 14 Nordeste 22 Nordeste 0 924.7 -- 35
2020-09-16 18:00:00 28.1 9 Nordeste 21 Este 0 925 -- 30
2020-09-16 17:00:00 29.5 15 Nordeste 26 Nordeste 0 925.5 -- 29
2020-09-16 16:00:00 28.6 9 Norte 21 Este 0 926.5 -- 36
2020-09-16 15:00:00 27.8 9 Norte 22 Nordeste 0 927.3 -- 37
2020-09-16 14:00:00 26.8 9 Este 18 Este 0 928.1 -- 38
2020-09-16 13:00:00 25.6 10 Este 21 Este 0 928.7 -- 43
2020-09-16 12:00:00 23 7 Este 13 Este 0 929.2 -- 58
2020-09-16 11:00:00 18.8 3 Este 8 Este 0 929.5 -- 68
2020-09-16 10:00:00 15 0 Calma 5 Sur 0 929.5 -- 82
2020-09-16 09:00:00 10.7 0 Calma -- -- 0 929.7 -- 95
2020-09-16 08:00:00 9.8 0 Calma 9 Este 0 929.5 -- 94
2020-09-16 07:00:00 9.7 6 Este 8 Este 0 929.4 -- 95
2020-09-16 06:00:00 10.2 3 Sudeste 8 Este 0 929.6 -- 94
2020-09-16 05:00:00 10.8 2 Sudeste 8 Este 0 929.8 -- 93
2020-09-16 04:00:00 11.6 -- -- -- -- 0 930.2 -- 93
2020-09-16 03:00:00 11.8 2 Nordeste 8 Este 0 930.4 -- 94
2020-09-16 02:00:00 13 0 Calma 5 Este 0 930.2 -- 91
2020-09-16 01:00:00 13.6 0 Calma 9 Nordeste 0 930.4 -- 90
2020-09-16 00:00:00 14.3 3 Este 11 Sudoeste 0 930.3 -- 87
2020-09-15 23:00:00 16.4 0 Calma 9 Este 0 930.3 -- 81
2020-09-15 22:00:00 17.6 3 Sudeste 8 Este 0 929.8 -- 72
2020-09-15 21:00:00 20.2 6 Oeste 15 Sudoeste 0 929.3 -- 55
2020-09-15 20:00:00 24.1 10 Oeste 26 Sudoeste 0 929 -- 43
2020-09-15 19:00:00 27.1 19 Oeste 30 Oeste 0 928.9 -- 35
2020-09-15 18:00:00 27.7 18 Oeste 33 Sudoeste 0 929 -- 34
2020-09-15 17:00:00 28.3 20 Oeste 32 Oeste 0 929.1 -- 32
2020-09-15 16:00:00 27.8 14 Sur 30 Sudoeste 0 929.7 -- 36
2020-09-15 15:00:00 27.5 15 Sudoeste 26 Sudoeste 0 930 -- 36
2020-09-15 14:00:00 26.2 16 Sur 28 Sur 0 930.5 -- 41
2020-09-15 13:00:00 24.8 14 Sudoeste 28 Sur 0 930.9 -- 48
2020-09-15 12:00:00 22 9 Sur 15 Sur 0 931.3 -- 68
2020-09-15 11:00:00 19.3 8 Sur 13 Sudeste 0 931.3 -- 86
2020-09-15 10:00:00 16.5 0 Calma 5 Sudeste 0 931.1 -- 93
2020-09-15 09:00:00 12.8 0 Calma 5 Este 0 930.8 -- 98
2020-09-15 08:00:00 11.6 2 Este -- -- 0 930.4 -- 98
2020-09-15 07:00:00 12.4 0 Calma 5 Sudoeste 0 930.1 -- 97
2020-09-15 06:00:00 13.1 2 Sur 5 Sur 0 930 -- 97
2020-09-15 05:00:00 14 6 Sur 9 Sur 0 930.1 -- 97
2020-09-15 04:00:00 14.4 5 Sudeste 9 Sudeste 0 929.9 -- 97
2020-09-15 03:00:00 14.6 0 Calma 8 Noroeste 0 930 -- 96
2020-09-15 02:00:00 16.1 5 Sudeste 13 Sur 0 930.1 -- 93
2020-09-15 01:00:00 16.9 5 Norte 28 Sur 3.9 930 -- 90
2020-09-15 00:00:00 18.2 14 Sur 24 Sur 0.2 929.8 -- 77
2020-09-14 23:00:00 20.4 16 Sur 24 Sur 0 929.7 -- 59
2020-09-14 22:00:00 22.7 12 Sur 24 Sur 0 928.9 -- 53
2020-09-14 21:00:00 21.8 12 Oeste 22 Oeste 0 928 -- 57
2020-09-14 20:00:00 24.8 8 Sudoeste 33 Sur 0 927.6 -- 53
2020-09-14 19:00:00 28.8 17 Sur 32 Sudoeste 0 927.7 -- 34
2020-09-14 18:00:00 26.2 22 Sudoeste 39 Sudoeste 0.1 928.2 -- 51
2020-09-14 17:00:00 30.3 7 Norte 26 Este 0 928.1 -- 32
2020-09-14 16:00:00 29.1 13 Este 21 Este 0 928.8 -- 35
2020-09-14 15:00:00 28.4 9 Norte 17 Norte 0 929.7 -- 35
2020-09-14 14:00:00 27.4 8 Sudoeste 21 Sudoeste 0 930.3 -- 36
2020-09-14 13:00:00 23.7 4 Noroeste 9 Norte 0 930.9 -- 48
2020-09-14 12:00:00 19.8 0 Calma 8 Noroeste 0 931.2 -- 66
2020-09-14 11:00:00 18.9 0 Calma 4 Norte 0 931 -- 73
2020-09-14 10:00:00 17.9 0 Calma 2 Oeste 0 930.6 -- 78
2020-09-14 09:00:00 16 0 Calma 8 Este 0 930.2 -- 82
2020-09-14 08:00:00 14.8 2 Este 8 Norte 0 929.9 -- 85
2020-09-14 07:00:00 14.4 2 Este 9 Nordeste 0 929.6 -- 79
2020-09-14 06:00:00 13.9 6 Este 11 Sudeste 0 929.5 -- 81
2020-09-14 05:00:00 14.4 9 Sudeste 11 Sudeste 0 929.7 -- 78
2020-09-14 04:00:00 14.9 5 Norte 9 Nordeste 0 929.5 -- 78
2020-09-14 03:00:00 15.2 0 Calma 13 Sudeste 0 929.6 -- 79
2020-09-14 02:00:00 16.2 10 Este 13 Este 0 929.7 -- 75
2020-09-14 01:00:00 16.9 6 Este 9 Este 0 930 -- 76
2020-09-14 00:00:00 18 3 Este 9 Este 0 930.2 -- 70
2020-09-13 23:00:00 19.5 4 Este 13 Sudeste 0 930.2 -- 67
2020-09-13 22:00:00 20.8 7 Este 9 Este 0 929.9 -- 65
2020-09-13 21:00:00 24.2 4 Sur 13 Sudoeste 0 929.2 -- 50
2020-09-13 20:00:00 28.4 12 Oeste 22 Oeste 0 929.1 -- 30
2020-09-13 19:00:00 31.1 10 Oeste 15 Sudoeste 0 928.9 -- 26
2020-09-13 18:00:00 32.9 10 Este 18 Este 0 928.7 -- 22
2020-09-13 17:00:00 33.3 9 Este 15 Este 0 929.1 -- 21
2020-09-13 16:00:00 32.6 9 Este 21 Este 0 929.6 -- 23
2020-09-13 15:00:00 33.4 10 Este 17 Sudeste 0 930 -- 22
2020-09-13 14:00:00 31 8 Nordeste 15 Nordeste 0 930.4 -- 24
2020-09-13 13:00:00 27.6 6 Este 13 Nordeste 0 930.8 -- 32
2020-09-13 12:00:00 22.3 6 Este 11 Nordeste 0 931.1 -- 42
2020-09-13 11:00:00 20.8 2 Nordeste 9 Este 0 931 -- 45
2020-09-13 10:00:00 18.3 3 Sur 8 Sudeste 0 930.9 -- 42
2020-09-13 09:00:00 13 0 Calma -- -- -- 930.5 -- 72
2020-09-13 08:00:00 10.8 0 Calma 9 Norte 0 929.9 -- 87
2020-09-13 07:00:00 12.9 0 Calma 5 Oeste 0 929.6 -- 75
2020-09-13 06:00:00 12.9 4 Oeste 13 Este 0 929.2 -- 73
2020-09-13 05:00:00 12.9 3 Sur 9 Sudoeste 0 929.1 -- 69
2020-09-13 04:00:00 12.7 4 Sur 9 Sur 0 929.2 -- 64
2020-09-13 03:00:00 14.8 8 Sudeste 13 Sur 0 929.3 -- 49
2020-09-13 02:00:00 14.1 3 Sudeste 13 Este 0 929.5 -- 63
2020-09-13 01:00:00 18.3 12 Este 22 Este 0 929.8 -- 37
2020-09-13 00:00:00 20.9 18 Este 28 Este 0 929.6 -- 29
2020-09-12 23:00:00 18.7 12 Este 17 Este 0 929.5 -- 48
2020-09-12 22:00:00 20.3 0 Calma 13 Nordeste 0 928.7 -- 52
2020-09-12 21:00:00 22.7 10 Nordeste 13 Nordeste 0 928 -- 42
2020-09-12 20:00:00 27 9 Nordeste 13 Nordeste 0 927.7 -- 32
2020-09-12 19:00:00 30.4 10 Nordeste 18 Nordeste 0 927.5 -- 22
2020-09-12 18:00:00 30.3 8 Nordeste 21 Nordeste 0 927.5 -- 21
2020-09-12 17:00:00 31.7 12 Nordeste 30 Este 0 927.4 -- 18
2020-09-12 16:00:00 32.1 14 Nordeste 28 Este 0 927.8 -- 18
2020-09-12 15:00:00 31.5 15 Este 35 Este 0 928.2 -- 18
2020-09-12 14:00:00 30.3 19 Este 35 Este 0 928.5 -- 19
2020-09-12 13:00:00 28.2 18 Este 28 Este 0 928.9 -- 25
2020-09-12 12:00:00 24.8 14 Este 21 Este 0 928.8 -- 36
2020-09-12 11:00:00 20.4 4 Nordeste 9 Nordeste 0 928.6 -- 53
2020-09-12 10:00:00 16.7 3 Sur 9 Sur 0 928.2 -- 60
2020-09-12 09:00:00 11.4 0 Calma -- -- 0 928 -- 90
2020-09-12 08:00:00 9.7 0 Calma -- -- 0 927.4 -- 92
2020-09-12 07:00:00 9.9 0 Calma -- -- 0 926.8 -- 92
2020-09-12 06:00:00 10.3 0 Calma 5 Sur 0 926.5 -- 90
2020-09-12 05:00:00 11.4 3 Sur -- -- -- 926.4 -- 86
2020-09-12 04:00:00 12.1 0 Calma -- -- 0 926.4 -- 86
2020-09-12 03:00:00 13 2 Sur 5 Sur 0 926.4 -- 78
2020-09-12 02:00:00 12.8 6 Nordeste 8 Nordeste 0 926.5 -- 86
2020-09-12 01:00:00 14.4 0 Calma 9 Sudeste 0 926.3 -- 77
2020-09-12 00:00:00 15.7 4 Sur 8 Sur 0 926 -- 66
2020-09-11 23:00:00 17.2 0 Calma -- -- 0 925.8 -- 70
2020-09-11 22:00:00 19 0 Calma 9 Nordeste 0 925.3 -- 58
2020-09-11 21:00:00 21.6 8 Nordeste 15 Nordeste 0 924.8 -- 44
2020-09-11 20:00:00 26.8 10 Nordeste 17 Este 0 924.5 -- 28
2020-09-11 19:00:00 30.3 5 Este 11 Nordeste 0 924.5 -- 20
2020-09-11 18:00:00 29.3 7 Este 11 Este 0 924.7 -- 21
2020-09-11 17:00:00 29.9 6 Norte 18 Noroeste 0 925 -- 20
2020-09-11 16:00:00 30.1 8 Noroeste 18 Sudeste 0 925.4 -- 23
2020-09-11 15:00:00 29.4 9 Este 21 Este 0 925.7 -- 24
2020-09-11 14:00:00 28.5 14 Este 22 Este 0 926.2 -- 26
2020-09-11 13:00:00 26.9 12 Este 18 Este 0 926.7 -- 33
2020-09-11 12:00:00 23.1 6 Nordeste 13 Este 0 927 -- 45
2020-09-11 11:00:00 19.4 3 Norte 9 Norte 0 926.9 -- 58
2020-09-11 10:00:00 16.5 4 Este 8 Este 0 926.8 -- 64
2020-09-11 09:00:00 10.5 3 Oeste 9 Oeste 0 926.7 -- 88
2020-09-11 08:00:00 7.7 4 Oeste 5 Oeste 0 926.4 -- 91
2020-09-11 07:00:00 8.4 0 Calma 8 Sudoeste 0 926.1 -- 89
2020-09-11 06:00:00 9.9 2 Sudoeste 5 Sur 0 926 -- 87
2020-09-11 05:00:00 10.2 0 Calma 2 Sudeste 0 926.3 -- 87
2020-09-11 04:00:00 10.3 0 Calma 11 Nordeste 0 926.4 -- 88
2020-09-11 03:00:00 11.6 5 Este -- -- -- 926.8 -- 79
2020-09-11 02:00:00 12.4 0 Calma 13 Este 0 927.2 -- 80
2020-09-11 01:00:00 12.8 4 Sudeste 11 Sur 0 927.3 -- 79
2020-09-11 00:00:00 13.8 6 Oeste 8 Oeste 0 927.4 -- 82
2020-09-10 23:00:00 15.9 0 Calma -- -- 0 -- -- 74
2020-09-10 22:00:00 17.9 0 Calma 8 Nordeste 0 927.2 -- 67
2020-09-10 21:00:00 21.5 5 Norte 11 Norte 0 926.8 -- 51
2020-09-10 20:00:00 27.1 10 Este 15 Este 0 927.1 -- 26
2020-09-10 19:00:00 28.6 8 Este 18 Norte 0 927.2 -- 23
2020-09-10 18:00:00 29.5 3 Nordeste 21 Este 0 927.6 -- 22
2020-09-10 17:00:00 29.3 8 Este 21 Sudeste 0 928 -- 22
2020-09-10 16:00:00 29.1 12 Este 22 Nordeste 0 928.7 -- 23
2020-09-10 15:00:00 28.2 11 Nordeste 21 Este 0 929.4 -- 28
2020-09-10 14:00:00 26.9 10 Este 22 Este 0 929.9 -- 32
2020-09-10 13:00:00 25.5 15 Este 22 Este 0 930.5 -- 37
2020-09-10 12:00:00 22.7 7 Este 13 Este 0 931.1 -- 49
2020-09-10 11:00:00 19 2 Nordeste 9 Sudeste 0 931.2 -- 60
2020-09-10 10:00:00 16 0 Calma 5 Sudeste 0 931.1 -- 64
2020-09-10 09:00:00 10.1 0 Calma -- -- 0 930.8 -- 80
2020-09-10 08:00:00 7.9 0 Calma 8 Sudoeste 0 930.4 -- 86
2020-09-10 07:00:00 8.6 0 Calma -- -- 0 930 -- 84
2020-09-10 06:00:00 9.3 0 Calma 5 Sur 0 930 -- 87
2020-09-10 05:00:00 9.5 3 Nordeste 5 Nordeste 0 930.3 -- 88
2020-09-10 04:00:00 10.8 0 Calma 8 Sur 0 930.4 -- 78
2020-09-10 03:00:00 10.6 5 Nordeste 9 Sudoeste 0 930.8 -- 81
2020-09-10 02:00:00 11.4 9 Sudoeste 11 Sudoeste 0 931 -- 72
2020-09-10 01:00:00 12.5 3 Este 8 Este 0 930.7 -- 78
2020-09-10 00:00:00 14.2 0 Calma -- -- 0 930.6 -- 79
2020-09-09 23:00:00 15.4 0 Calma 8 Nordeste 0 930.5 -- 66
2020-09-09 22:00:00 17.6 5 Nordeste 11 Nordeste 0 930.3 -- 56
2020-09-09 21:00:00 20.8 9 Nordeste -- -- 0 929.6 -- 48
2020-09-09 20:00:00 26.4 5 Nordeste 15 Sudeste 0 929.5 -- 25
2020-09-09 19:00:00 28.5 6 Sudeste 15 Este 0 929.4 -- 20
2020-09-09 18:00:00 28.8 6 Nordeste 15 Sudeste 0 929.5 -- 18
2020-09-09 17:00:00 29 6 Sudeste 17 Este 0 929.8 -- 16
2020-09-09 16:00:00 28.5 6 Este 21 Este 0 930.1 -- 19
2020-09-09 15:00:00 27.9 5 Este 15 Este 0 930.4 -- 22
2020-09-09 14:00:00 27.2 8 Este 17 Este 0 930.7 -- 21
2020-09-09 13:00:00 25.3 4 Nordeste 15 Nordeste 0 931.3 -- 30
2020-09-09 12:00:00 21.9 5 Noroeste 13 Este 0 931.7 -- 36
2020-09-09 11:00:00 18.5 6 Este 11 Sudeste 0 931.9 -- 46
2020-09-09 10:00:00 14.3 5 Este 8 Este 0 931.5 -- 55
2020-09-09 09:00:00 9.1 3 Nordeste 8 Nordeste 0 931.2 -- 83
2020-09-09 08:00:00 6.5 0 Calma 5 Este 0 930.8 -- 91
2020-09-09 07:00:00 6.7 2 Sudeste 8 Este 0 930.5 -- 89
2020-09-09 06:00:00 7.3 0 Calma -- -- 0 930.4 -- 86
2020-09-09 05:00:00 7.6 7 Este 15 Este 0 930.3 -- 83
2020-09-09 04:00:00 8.1 3 Norte 9 Sudeste 0 930.2 -- 90
2020-09-09 03:00:00 9.1 6 Sudeste 8 Sudeste 0 930.2 -- 87
2020-09-09 02:00:00 10.1 0 Calma 5 Este 0 930.4 -- 85
2020-09-09 01:00:00 10.9 5 Este 9 Sudeste 0 930.6 -- 79
2020-09-09 00:00:00 11.4 0 Calma 4 Sudeste 0 930.8 -- 76
2020-09-08 23:00:00 13.9 2 Sudeste 9 Este 0 930.6 -- 65
2020-09-08 22:00:00 16.3 4 Este 11 Sur 0 930.2 -- 52
2020-09-08 21:00:00 19.3 9 Nordeste 15 Nordeste 0 929.7 -- 42
2020-09-08 20:00:00 23.7 5 Nordeste 17 Nordeste 0 929.4 -- 29
2020-09-08 19:00:00 25.9 12 Nordeste 21 Norte 0 929.3 -- 25
2020-09-08 18:00:00 26.5 12 Nordeste 24 Este 0 929.3 -- 21
2020-09-08 17:00:00 26.5 15 Nordeste 28 Este 0 929.6 -- 20
2020-09-08 16:00:00 25.7 18 Nordeste 28 Este 0 930.3 -- 24
2020-09-08 15:00:00 24.3 14 Este 30 Este 0 930.8 -- 28
2020-09-08 14:00:00 22.6 12 Este 24 Este 0 931.1 -- 31
2020-09-08 13:00:00 20.3 13 Este 22 Nordeste 0 931.6 -- 36
2020-09-08 12:00:00 17.5 14 Este 24 Nordeste 0 932.1 -- 45
2020-09-08 11:00:00 14.7 14 Este 22 Este 0 932.3 -- 56
2020-09-08 10:00:00 11.9 12 Este 22 Este 0 932.2 -- 70
2020-09-08 09:00:00 9.3 17 Este 26 Este 0 932.2 -- 83
2020-09-08 08:00:00 7.1 6 Nordeste 15 Nordeste 0 931.7 -- 88
2020-09-08 07:00:00 7.1 4 Sudeste 13 Este 0 931.6 -- 87
2020-09-08 06:00:00 7.6 5 Este 13 Nordeste 0 931.4 -- 82
2020-09-08 05:00:00 8.1 8 Nordeste 17 Este 0 931.6 -- 80
2020-09-08 04:00:00 9.6 14 Este 21 Este 0 931.7 -- 74
2020-09-08 03:00:00 10.1 9 Este 17 Nordeste 0 932 -- 70
2020-09-08 02:00:00 11.7 18 Este 26 Nordeste 0 932 -- 64
2020-09-08 01:00:00 13 19 Nordeste 30 Nordeste 0 932.2 -- 59
2020-09-08 00:00:00 14.3 17 Este 28 Nordeste 0 932 -- 54
2020-09-07 23:00:00 15.1 14 Este 22 Este 0 931.7 -- 50
2020-09-07 22:00:00 16.5 14 Este 24 Nordeste 0 931 -- 46
2020-09-07 21:00:00 18.1 11 Nordeste 24 Este 0 930.2 -- 42
2020-09-07 20:00:00 21.6 20 Nordeste 33 Nordeste 0 930 -- 34
2020-09-07 19:00:00 23.5 18 Este 33 Este 0 929.8 -- 30
2020-09-07 18:00:00 24 19 Nordeste 37 Nordeste 0 929.8 -- 28
2020-09-07 17:00:00 24.1 21 Nordeste 33 Este 0 929.9 -- 28
2020-09-07 16:00:00 23.6 23 Este 35 Este 0 930.2 -- 31
2020-09-07 15:00:00 22.4 19 Nordeste 33 Nordeste 0 930.6 -- 35
2020-09-07 14:00:00 21.5 20 Este 35 Este 0 931 -- 37
2020-09-07 13:00:00 19.9 23 Este 35 Este 0 931.4 -- 42
2020-09-07 12:00:00 17.8 24 Este 37 Este 0 931.6 -- 50
2020-09-07 11:00:00 16.1 23 Este 41 Este 0 931.5 -- 59
2020-09-07 10:00:00 13.9 18 Este 28 Este 0 931.2 -- 69
2020-09-07 09:00:00 11.4 6 Este 13 Este 0 930.8 -- 81
2020-09-07 08:00:00 9.7 8 Este 15 Este 0 930.4 -- 84
2020-09-07 07:00:00 10 8 Este 18 Este 0 930 -- 82
2020-09-07 06:00:00 10.5 6 Este 18 Este 0 929.6 -- 81
2020-09-07 05:00:00 11.3 12 Nordeste 18 Nordeste 0 929.8 -- 79
2020-09-07 04:00:00 12.2 13 Este 21 Este 0 929.8 -- 72
2020-09-07 03:00:00 12.9 14 Este 26 Este 0 929.9 -- 67
2020-09-07 02:00:00 13.9 19 Nordeste 35 Nordeste 0 929.8 -- 64
2020-09-07 01:00:00 14.8 21 Nordeste 28 Nordeste 0 929.2 -- 61
2020-09-07 00:00:00 16.8 17 Este 32 Este 0 928.8 -- 53
2020-09-06 23:00:00 18.8 19 Este 30 Este 0 928.2 -- 47
2020-09-06 22:00:00 20.8 18 Este 28 Este 0 927.8 -- 48
2020-09-06 21:00:00 23.5 19 Nordeste 28 Nordeste 0 926.9 -- 43
2020-09-06 20:00:00 27.6 11 Nordeste 17 Nordeste 0 926.2 -- 36
2020-09-06 19:00:00 29.4 13 Norte 30 Nordeste 0 926.2 -- 30
2020-09-06 18:00:00 30.3 10 Nordeste 22 Nordeste 0 926.3 -- 29
2020-09-06 17:00:00 30.1 13 Nordeste 28 Nordeste 0 926.7 -- 30
2020-09-06 16:00:00 29.1 8 Nordeste 22 Nordeste 0 927.1 -- 34
2020-09-06 15:00:00 27.5 13 Nordeste 21 Nordeste 0 927.6 -- 37
2020-09-06 14:00:00 25.6 12 Nordeste 24 Nordeste 0 928.1 -- 43
2020-09-06 13:00:00 23.2 11 Nordeste 21 Este 0 928.5 -- 49
2020-09-06 12:00:00 20.6 12 Este 21 Este 0 928.8 -- 58
2020-09-06 11:00:00 18.7 12 Este 21 Este 0 928.9 -- 64
2020-09-06 10:00:00 16.2 14 Este 24 Este 0 928.8 -- 73
2020-09-06 09:00:00 13.9 5 Este 13 Nordeste 0 928.7 -- 85
2020-09-06 08:00:00 12.5 4 Nordeste 11 Este 0 928.5 -- 88
2020-09-06 07:00:00 13 7 Nordeste 18 Nordeste 0 928.2 -- 87
2020-09-06 06:00:00 13.7 11 Nordeste 24 Nordeste 0 928.1 -- 84
2020-09-06 05:00:00 14.1 15 Nordeste 26 Nordeste 0 928.3 -- 85
2020-09-06 04:00:00 14.3 7 Nordeste 21 Nordeste 0 928.7 -- 81
2020-09-06 03:00:00 15.6 13 Nordeste 21 Nordeste 0 928.8 -- 77
2020-09-06 02:00:00 16.7 6 Este 26 Este 0 928.6 -- 72
2020-09-06 01:00:00 18.6 14 Este 28 Este 0 928.3 -- 66
2020-09-06 00:00:00 20.3 20 Este 28 Nordeste 0 928.1 -- 60
2020-09-05 23:00:00 21.9 17 Este 32 Nordeste 0 928 -- 53
2020-09-05 22:00:00 24.8 23 Nordeste 33 Este 0 927.2 -- 42
2020-09-05 21:00:00 24.8 8 Nordeste 11 Nordeste 0 926.4 -- 41
2020-09-05 20:00:00 30.8 -- -- -- -- 0 926.4 -- 33
2020-09-05 19:00:00 32.5 5 Norte 11 Norte 0 926.7 -- 23
2020-09-05 18:00:00 32.8 3 Sudoeste 17 Nordeste 0 927.1 -- 19
2020-09-05 17:00:00 32.6 9 Nordeste 21 Norte 0 927.5 -- 19
2020-09-05 16:00:00 32.5 9 Norte 18 Este 0 928.2 -- 21
2020-09-05 15:00:00 31.1 11 Nordeste 18 Nordeste 0 929.1 -- 24
2020-09-05 14:00:00 29 10 Nordeste 28 Nordeste 0 929.5 -- 29
2020-09-05 13:00:00 27.4 8 Este 17 Este 0 930.1 -- 33
2020-09-05 12:00:00 24.9 8 Este 13 Este 0 930.4 -- 41
2020-09-05 11:00:00 20.9 5 Norte 9 Noroeste 0 930.4 -- 51
2020-09-05 10:00:00 18.7 0 Calma 8 Este 0 930.4 -- 59
2020-09-05 09:00:00 13.3 2 Sudeste 5 Sudeste 0 930.3 -- 83
2020-09-05 08:00:00 10.5 2 Este 11 Oeste 0 930 -- 89
2020-09-05 07:00:00 10.5 9 Sudoeste 9 Sudoeste 0 929.8 -- 86
2020-09-05 06:00:00 -- -- -- -- -- -- -- -- --
2020-09-05 05:00:00 11.7 2 Este 8 Este 0 929.9 -- 87
2020-09-05 04:00:00 12.4 2 Oeste 9 Oeste 0 930.1 -- 85
2020-09-05 03:00:00 12.9 7 Oeste 11 Norte 0 930.5 -- 85
2020-09-05 02:00:00 14.3 2 Sudoeste 9 Sudoeste 0 930.5 -- 84
2020-09-05 01:00:00 16 7 Sur 22 Norte 0 930.6 -- 69
2020-09-05 00:00:00 17.1 5 Sur 9 Sur 0 930.4 -- 66
2020-09-04 23:00:00 17.8 6 Nordeste 15 Sur 0 930.4 -- 71
2020-09-04 22:00:00 20.2 6 Norte 17 Nordeste 0 930.2 -- 63
2020-09-04 21:00:00 24.8 0 Calma 11 Sudeste 0 929.6 -- 52
2020-09-04 20:00:00 30.4 8 Sudeste 13 Sudeste 0 929.4 -- 28
2020-09-04 19:00:00 33 10 Este 15 Este 0 929.6 -- 19
2020-09-04 18:00:00 33.5 3 Norte 13 Nordeste 0 929.7 -- 16
2020-09-04 17:00:00 33.2 6 Nordeste 17 Nordeste 0 930.1 -- 16
2020-09-04 16:00:00 33.1 7 Este 17 Este 0 930.8 -- 16
2020-09-04 15:00:00 32.1 9 Nordeste 17 Nordeste 0 931.4 -- 18
2020-09-04 14:00:00 31.4 6 Nordeste 11 Nordeste 0 931.9 -- 19
2020-09-04 13:00:00 30.1 7 Noroeste 13 Oeste 0 932.5 -- 22
2020-09-04 12:00:00 26 3 Noroeste 9 Noroeste 0 932.7 -- 38
2020-09-04 11:00:00 21.4 3 Nordeste 8 Este 0 932.6 -- 50
2020-09-04 10:00:00 16.7 0 Calma 8 Norte 0 932.4 -- 63
2020-09-04 09:00:00 12.3 2 Sur 5 Sur 0 932.1 -- 72
2020-09-04 08:00:00 8.8 5 Este 8 Este 0 931.6 -- 89
2020-09-04 07:00:00 9.3 4 Este 8 Nordeste 0 931.2 -- 91
2020-09-04 06:00:00 10.1 0 Calma 2 Sudeste 0 931 -- 87
2020-09-04 05:00:00 10.2 0 Calma 2 Este 0 931.1 -- 89
2020-09-04 04:00:00 10.8 0 Calma 5 Este 0 931.2 -- 87
2020-09-04 03:00:00 11.5 0 Calma 5 Sur 0 931.4 -- 86
2020-09-04 02:00:00 11.9 3 Sur 9 Nordeste 0 931.6 -- 84
2020-09-04 01:00:00 12.9 6 Nordeste 8 Nordeste 0 931.7 -- 82
2020-09-04 00:00:00 15.7 -- -- -- -- -- -- -- 69
2020-09-03 23:00:00 16.4 0 Calma 5 Sur 0 931.2 -- 75
2020-09-03 22:00:00 18.9 2 Este 11 Este 0 930.7 -- 62
2020-09-03 21:00:00 23.6 7 Este 11 Este 0 930.2 -- 51
2020-09-03 20:00:00 30.3 4 Este 13 Este 0 929.8 -- 22
2020-09-03 19:00:00 30.9 8 Este 15 Este 0 929.8 -- 17
2020-09-03 18:00:00 30.9 6 Nordeste 13 Nordeste 0 929.9 -- 18
2020-09-03 17:00:00 30.9 5 Nordeste 15 Norte 0 930.1 -- 17
2020-09-03 16:00:00 30.5 6 Este 15 Este 0 930.4 -- 21
2020-09-03 15:00:00 29.1 5 Noroeste 15 Noroeste 0 930.8 -- 23
2020-09-03 14:00:00 28 10 Nordeste 22 Nordeste 0 931.1 -- 25
2020-09-03 13:00:00 27.1 12 Este 24 Este 0 931.4 -- 30
2020-09-03 12:00:00 24.6 13 Nordeste 21 Nordeste 0 931.3 -- 34
2020-09-03 11:00:00 20 5 Nordeste 11 Nordeste 0 931.3 -- 52
2020-09-03 10:00:00 16 4 Este 9 Este 0 930.9 -- 59
2020-09-03 09:00:00 10.5 0 Calma 5 Nordeste 0 930.7 -- 79
2020-09-03 08:00:00 7.4 0 Calma 13 Sudoeste 0 930 -- 86
2020-09-03 07:00:00 8.3 5 Sur 13 Sur 0 929.5 -- 83
2020-09-03 06:00:00 8.2 6 Este 13 Sudoeste 0 929.5 -- 82
2020-09-03 05:00:00 9.1 0 Calma 5 Sur 0 929.5 -- 86
2020-09-03 04:00:00 10 3 Sur 5 Sur 0 929.4 -- 83
2020-09-03 03:00:00 10.6 0 Calma 5 Sur 0 929.2 -- 83
2020-09-03 02:00:00 11.5 4 Sudeste 9 Sudeste 0 929.3 -- 78
2020-09-03 01:00:00 12 4 Sur 5 Sur 0 929.2 -- 77
2020-09-03 00:00:00 13.5 0 Calma 4 Este 0 928.8 -- 79
2020-09-02 23:00:00 15 3 Sur 5 Este 0 928.6 -- 68
2020-09-02 22:00:00 17.4 4 Este 13 Nordeste 0 928.3 -- 59
2020-09-02 21:00:00 20.8 7 Nordeste 17 Nordeste 0 927.5 -- 44
2020-09-02 20:00:00 26.1 8 Nordeste 21 Este 0 927.1 -- 26
2020-09-02 19:00:00 28.1 9 Este 18 Este 0 926.9 -- 19
2020-09-02 18:00:00 28.5 9 Este 21 Este 0 926.7 -- 17
2020-09-02 17:00:00 28 7 Este 18 Este 0 926.6 -- 21
2020-09-02 16:00:00 27.7 9 Este 22 Este 0 926.8 -- 21
2020-09-02 15:00:00 26.5 9 Norte 24 Este 0 927 -- 25
2020-09-02 14:00:00 25.1 13 Este 24 Este 0 927.2 -- 31
2020-09-02 13:00:00 22.9 14 Nordeste 26 Nordeste 0 927.5 -- 37
2020-09-02 12:00:00 20.4 12 Este 21 Este -- 927.7 -- 44
2020-09-02 11:00:00 17.9 11 Este 17 Este -- 927.5 -- 51
2020-09-02 10:00:00 14.8 9 Este 13 Nordeste -- 927 -- 66
2020-09-02 09:00:00 10.7 2 Este -- -- 0 926.7 -- 85
2020-09-02 08:00:00 7.5 0 Calma 11 Nordeste 0 926.5 -- 91
2020-09-02 07:00:00 10 11 Nordeste 18 Nordeste 0 926 -- 85
2020-09-02 06:00:00 10.8 14 Nordeste 21 Nordeste 0 925.5 -- 82
2020-09-02 05:00:00 11.2 7 Norte 13 Nordeste 0 925.2 -- 78
2020-09-02 04:00:00 11.4 10 Nordeste 15 Nordeste 0 925.2 -- 75
2020-09-02 03:00:00 11.3 6 Oeste 17 Este 0 925 -- 69
2020-09-02 02:00:00 14.4 11 Este 26 Este 0 924.6 -- 54
2020-09-02 01:00:00 15.3 19 Este 26 Este 0 924.4 -- 50
2020-09-02 00:00:00 12.4 0 Calma 8 Norte 0 923.8 -- 79
2020-09-01 23:00:00 14.7 0 Calma 8 Este 0 923.6 -- 61
2020-09-01 22:00:00 16.7 4 Este 13 Nordeste 0 923.4 -- 54
2020-09-01 21:00:00 20.1 5 Nordeste 8 Sudeste 0 922.8 -- 53
2020-09-01 20:00:00 25.4 6 Sudeste 15 Sudeste 0 922.5 -- 24
2020-09-01 19:00:00 27.1 8 Este 18 Sudeste 0 922.3 -- 20
2020-09-01 18:00:00 27.7 13 Este 21 Este 0 922.3 -- 19
2020-09-01 17:00:00 26.5 4 Oeste 13 Oeste 0 922.7 -- 19
2020-09-01 16:00:00 27 6 Noroeste 15 Noroeste 0 923.1 -- 19
2020-09-01 15:00:00 25.8 5 Noroeste 21 Oeste 0 923.7 -- 22
2020-09-01 14:00:00 25.2 6 Oeste 15 Norte 0 924.2 -- 21
2020-09-01 13:00:00 23 7 Norte 15 Este 0 924.8 -- 29
2020-09-01 12:00:00 22.4 8 Nordeste 13 Nordeste 0 924.9 -- 31
2020-09-01 11:00:00 17.1 5 Este 11 Sudeste 0 925 -- 56
2020-09-01 10:00:00 13.5 3 Este 8 Nordeste 0 925.1 -- 67
2020-09-01 09:00:00 11.8 0 Calma 5 Este 0 925 -- 79
2020-09-01 08:00:00 10.3 3 Este 9 Nordeste 0 924.9 -- 89
2020-09-01 07:00:00 10.9 2 Sudoeste 9 Sur 0 925 -- 83
2020-09-01 06:00:00 11 3 Este 8 Norte 0 925 -- 84
2020-09-01 05:00:00 10.8 0 Calma 8 Norte 0 925.7 -- 84
2020-09-01 04:00:00 10.9 4 Nordeste 8 Sudeste 0 925.8 -- 80
2020-09-01 03:00:00 11 6 Este -- -- 0 926.1 -- 80
2020-09-01 02:00:00 10.7 4 Sudeste 8 Este 0 926.4 -- 79
2020-09-01 01:00:00 10.4 4 Norte 5 Norte 0 926.7 -- 82
2020-09-01 00:00:00 12 3 Sur 8 Este 0 926.8 -- 62
2020-08-31 23:00:00 13.3 6 Sudeste 15 Sudeste 0 926.8 -- 62
2020-08-31 22:00:00 16.2 6 Norte 15 Norte 0 926.6 -- 45
2020-08-31 21:00:00 18.5 9 Norte 13 Norte 0 926.1 -- 38
2020-08-31 20:00:00 24.2 9 Noroeste 18 Noroeste 0 926 -- 24
2020-08-31 19:00:00 25.7 7 Noroeste 18 Oeste 0 926.3 -- 20
2020-08-31 18:00:00 25.9 13 Oeste 24 Noroeste 0 926.7 -- 19
2020-08-31 17:00:00 25.1 13 Noroeste 26 Noroeste 0 927.2 -- 20
2020-08-31 16:00:00 24.8 12 Noroeste 24 Norte 0 927.5 -- 23
2020-08-31 15:00:00 23.3 8 Noroeste 28 Norte 0 928.2 -- 24
2020-08-31 14:00:00 22.7 9 Noroeste 24 Norte 0 928.7 -- 27
2020-08-31 13:00:00 21.2 8 Noroeste 17 Sudeste 0 929 -- 30
2020-08-31 12:00:00 19.8 12 Este 21 Sudeste 0 929.1 -- 34
2020-08-31 11:00:00 16.3 6 Este 13 Este 0 929.2 -- 48
2020-08-31 10:00:00 11 0 Calma 5 Norte 0 929.1 -- 70
2020-08-31 09:00:00 7.2 0 Calma -- -- 0 928.9 -- 86
2020-08-31 08:00:00 4.7 0 Calma 8 Este 0 928.8 -- 94
2020-08-31 07:00:00 4.7 2 Sudeste 11 Este 0 928.2 -- 90
2020-08-31 06:00:00 5.4 8 Este 9 Sudeste 0 928.1 -- 84
2020-08-31 05:00:00 7.2 7 Este 9 Sudeste 0 928.4 -- 79
2020-08-31 04:00:00 7.3 5 Este 11 Este 0 928.6 -- 78
2020-08-31 03:00:00 8.3 9 Este 15 Este 0 928.8 -- 73
2020-08-31 02:00:00 8.7 8 Este 17 Este 0 929 -- 69
2020-08-31 01:00:00 8.1 10 Este 15 Este 0 928.8 -- 76
2020-08-31 00:00:00 8.7 6 Sur 9 Sur 0 928.2 -- 76
2020-08-30 23:00:00 10.3 6 Este 11 Norte 0 927.8 -- 73
2020-08-30 22:00:00 12.5 4 Nordeste 9 Nordeste 0 927.3 -- 64
2020-08-30 21:00:00 16.1 6 Nordeste 18 Este 0 926.7 -- 45
2020-08-30 20:00:00 19.5 13 Este 22 Este 0 926.2 -- 32
2020-08-30 19:00:00 20 14 Nordeste 22 Nordeste 0 926 -- 30
2020-08-30 18:00:00 20.5 9 Nordeste 28 Este 0 925.9 -- 29
2020-08-30 17:00:00 19.8 9 Nordeste -- -- -- 925.8 -- 31
2020-08-30 16:00:00 -- -- -- -- -- -- -- -- --
2020-08-30 15:00:00 19.5 14 Este 26 Nordeste 0 926.4 -- 37
2020-08-30 14:00:00 19.1 14 Este 30 Nordeste 0 926.5 -- 39
2020-08-30 13:00:00 17.7 15 Este 30 Este 0 926.6 -- 43
2020-08-30 12:00:00 16.1 16 Este 28 Este 0 926.7 -- 49
2020-08-30 11:00:00 14.8 15 Este 26 Este 0 926.5 -- 53
2020-08-30 10:00:00 12.6 11 Este 17 Sudeste 0 926.1 -- 66
2020-08-30 09:00:00 8.6 4 Este 9 Este 0 925.8 -- 83
2020-08-30 08:00:00 5.6 7 Sudeste -- -- 0 925.4 -- 91
2020-08-30 07:00:00 5.9 6 Este 9 Nordeste 0 925.1 -- 90
2020-08-30 06:00:00 6.2 7 Nordeste 11 Este 0 924.9 -- 89
2020-08-30 05:00:00 6.9 6 Este 11 Este 0 925.1 -- 87
2020-08-30 04:00:00 8.1 8 Este 15 Este 0 925 -- 84
2020-08-30 03:00:00 9.3 10 Este 18 Este 0 925 -- 80
2020-08-30 02:00:00 10.5 11 Este 18 Este 0 925.2 -- 73
2020-08-30 01:00:00 11.9 13 Nordeste 26 Nordeste 0 925 -- 62
2020-08-30 00:00:00 14.1 15 Nordeste 28 Nordeste 0 924.4 -- 55
2020-08-29 23:00:00 14.7 17 Nordeste 33 Nordeste 0 923.7 -- 53
2020-08-29 22:00:00 16 16 Nordeste 32 Nordeste 0 922.7 -- 49
2020-08-29 21:00:00 17.8 16 Norte 30 Nordeste 0 921.9 -- 44
2020-08-29 20:00:00 19.4 17 Norte 33 Nordeste 0 921.3 -- 37
2020-08-29 19:00:00 21 20 Norte 35 Nordeste 0 920.9 -- 34
2020-08-29 18:00:00 20.7 20 Norte 37 Norte 0 920.7 -- 32
2020-08-29 17:00:00 21.7 21 Norte 37 Norte 0 920.6 -- 32
2020-08-29 16:00:00 21.3 15 Norte 32 Norte 0 920.8 -- 35
2020-08-29 15:00:00 20.8 18 Nordeste 35 Norte 0 921.2 -- 34
2020-08-29 14:00:00 18.7 17 Norte 33 Nordeste 0 921.2 -- 39
2020-08-29 13:00:00 17.8 14 Norte 32 Norte 0 921.5 -- 43
2020-08-29 12:00:00 16.9 15 Norte 26 Nordeste 0 921.5 -- 47
2020-08-29 11:00:00 15.8 13 Norte 24 Norte 0 921.5 -- 52
2020-08-29 10:00:00 13.1 4 Noroeste 9 Noroeste 0 921.2 -- 63
2020-08-29 09:00:00 10.5 5 Sudoeste 9 Oeste 0 921 -- 73
2020-08-29 08:00:00 8 3 Norte 11 Norte 0 920.7 -- 79
2020-08-29 07:00:00 8.2 6 Este 17 Norte 0 920.4 -- 76
2020-08-29 06:00:00 9.7 13 Norte 18 Nordeste 0 920.2 -- 72
2020-08-29 05:00:00 9.9 4 Norte 17 Norte 0 920.3 -- 72
2020-08-29 04:00:00 11.9 14 Norte 22 Norte 0 920.5 -- 65
2020-08-29 03:00:00 11 13 Norte 24 Norte 0 921 -- 70
2020-08-29 02:00:00 10.6 11 Norte 18 Norte 0 921.2 -- 71
2020-08-29 01:00:00 12 9 Norte 18 Noroeste 0 921.4 -- 69
2020-08-29 00:00:00 13.8 12 Noroeste 18 Noroeste 0 921.3 -- 56
2020-08-28 23:00:00 15.8 11 Noroeste 37 Noroeste 0 921.1 -- 49
2020-08-28 22:00:00 17.7 24 Noroeste 37 Noroeste 0 920.2 -- 47
2020-08-28 21:00:00 19.3 24 Noroeste 37 Noroeste 0 919.8 -- 41
2020-08-28 20:00:00 21.6 24 Noroeste 42 Noroeste 0 919.5 -- 34
2020-08-28 19:00:00 24.5 22 Noroeste 35 Noroeste 0 919.4 -- 25
2020-08-28 18:00:00 25.9 22 Oeste 39 Noroeste 0 919.4 -- 21
2020-08-28 17:00:00 26.5 23 Noroeste 39 Noroeste 0 919.8 -- 21
2020-08-28 16:00:00 26.8 15 Oeste 35 Oeste 0 920.3 -- 23
2020-08-28 15:00:00 26.1 18 Oeste 35 Oeste 0 921.1 -- 24
2020-08-28 14:00:00 25 15 Noroeste 30 Noroeste 0 921.9 -- 28
2020-08-28 13:00:00 24.1 16 Noroeste 24 Oeste 0 922.6 -- 34
2020-08-28 12:00:00 22.3 15 Noroeste 22 Oeste 0 923.2 -- 45
2020-08-28 11:00:00 20.4 15 Oeste 28 Oeste 0 923.5 -- 60
2020-08-28 10:00:00 18.4 15 Oeste 24 Oeste 0 923.7 -- 79
2020-08-28 09:00:00 15.7 11 Oeste 15 Oeste 0 923.8 -- 93
2020-08-28 08:00:00 14.7 11 Oeste 21 Oeste 0 923.8 -- 93
2020-08-28 07:00:00 15 13 Oeste 18 Oeste 0 923.9 -- 92
2020-08-28 06:00:00 15.3 13 Oeste 17 Oeste 0 924.4 -- 89
2020-08-28 05:00:00 14.9 8 Oeste 11 Oeste 0 924.8 -- 84
2020-08-28 04:00:00 17.1 0 Calma 15 Oeste 0 925.1 -- 77
2020-08-28 03:00:00 16.6 13 Oeste 15 Oeste 0 925.5 -- 77
2020-08-28 02:00:00 18.4 6 Oeste 13 Sudoeste 0 925.9 -- 71
2020-08-28 01:00:00 17.5 9 Oeste 11 Oeste 0 926.2 -- 68
2020-08-28 00:00:00 19.7 0 Calma 13 Este 0 926.3 -- 59
2020-08-27 23:00:00 22.8 12 Noroeste 17 Noroeste 0 926.2 -- 42
2020-08-27 22:00:00 24.7 12 Noroeste 26 Noroeste 0 925.9 -- 38
2020-08-27 21:00:00 27.5 14 Noroeste 28 Noroeste 0 925.5 -- 34
2020-08-27 20:00:00 30.4 18 Noroeste 30 Noroeste 0 925.3 -- 28
2020-08-27 19:00:00 32.9 11 Noroeste 22 Noroeste 0 925.4 -- 30
2020-08-27 18:00:00 33.6 7 Norte 24 Noroeste 0 925.9 -- 29
2020-08-27 17:00:00 33.4 10 Norte 17 Norte 0 926.6 -- 29
2020-08-27 16:00:00 32.9 5 Oeste 11 Oeste 0 927.3 -- 32
2020-08-27 15:00:00 31.3 4 Noroeste 17 Este 0 928.2 -- 35
2020-08-27 14:00:00 30.4 5 Nordeste 18 Este 0 928.8 -- 42
2020-08-27 13:00:00 29.1 3 Norte 13 Norte 0 929.4 -- 45
2020-08-27 12:00:00 27.5 4 Oeste 11 Oeste 0 929.9 -- 49
2020-08-27 11:00:00 23.6 4 Norte 9 Noroeste 0 930 -- 63
2020-08-27 10:00:00 20.2 5 Oeste 8 Noroeste 0 930 -- 69
2020-08-27 09:00:00 16.3 0 Calma 4 Sudeste 0 930 -- 76
2020-08-27 08:00:00 12.7 0 Calma 4 Nordeste 0 929.7 -- 92
2020-08-27 07:00:00 13.2 0 Calma 4 Nordeste 0 929.6 -- 93
2020-08-27 06:00:00 13.5 0 Calma 4 Este 0 929.5 -- 90
2020-08-27 05:00:00 14.1 0 Calma 8 Este 0 929.8 -- 90
2020-08-27 04:00:00 14.8 0 Calma 8 Este 0 930.1 -- 85
2020-08-27 03:00:00 15.4 3 Este 11 Sudoeste 0 930.1 -- 85
2020-08-27 02:00:00 16.6 5 Sudoeste -- -- 0 930.3 -- 79
2020-08-27 01:00:00 17.6 2 Sur 9 Sur 0 930.1 -- 78
2020-08-27 00:00:00 18.6 0 Calma -- -- 0 930.1 -- 75
2020-08-26 23:00:00 20.7 0 Calma 4 Oeste 0 929.9 -- 67
2020-08-26 22:00:00 22.9 5 Noroeste 11 Norte 0 929.3 -- 59
2020-08-26 21:00:00 27.2 10 Norte 15 Norte 0 928.7 -- 40
2020-08-26 20:00:00 31.3 11 Norte 22 Norte 0 928.3 -- 31
2020-08-26 19:00:00 33.2 11 Norte 18 Norte 0 928.3 -- 27
2020-08-26 18:00:00 34.2 11 Noroeste 21 Noroeste 0 928.5 -- 25
2020-08-26 17:00:00 33.9 8 Noroeste 22 Noroeste 0 928.7 -- 26
2020-08-26 16:00:00 33.4 8 Norte 21 Norte 0 929 -- 25
2020-08-26 15:00:00 32.6 8 Nordeste 22 Este 0 929.4 -- 28
2020-08-26 14:00:00 30.4 8 Norte 17 Nordeste 0 929.9 -- 32
2020-08-26 13:00:00 28.9 9 Este 15 Este 0 930.2 -- 40
2020-08-26 12:00:00 25.8 3 Este 11 Este 0 930.3 -- 50
2020-08-26 11:00:00 22.6 3 Este 9 Este 0 930.1 -- 54
2020-08-26 10:00:00 19.4 0 Calma 8 Sudeste 0 929.6 -- 53
2020-08-26 09:00:00 14.1 3 Sur 9 Sur 0 929.3 -- 74
2020-08-26 08:00:00 11 0 Calma 8 Norte 0 928.8 -- 89
2020-08-26 07:00:00 10.8 3 Norte 8 Norte 0 928.6 -- 91
2020-08-26 06:00:00 12 0 Calma 8 Sur 0 928.5 -- 88
2020-08-26 05:00:00 12.1 5 Este 8 Sudeste 0 928.7 -- 85
2020-08-26 04:00:00 12.6 0 Calma 9 Nordeste 0 928.9 -- 85
2020-08-26 03:00:00 13.1 2 Norte 11 Sudoeste 0 929 -- 85
2020-08-26 02:00:00 15.1 5 Sur 9 Sur 0 928.9 -- 68
2020-08-26 01:00:00 15.9 0 Calma 5 Sur 0 928.7 -- 79
2020-08-26 00:00:00 17.5 4 Sudoeste 8 Sudoeste 0 928.2 -- 68
2020-08-25 23:00:00 19.5 0 Calma 9 Noroeste 0 928 -- 58
2020-08-25 22:00:00 21.5 9 Noroeste 11 Noroeste 0 927 -- 55
2020-08-25 21:00:00 27.1 8 Noroeste 18 Norte 0 926 -- 31
2020-08-25 20:00:00 31.5 12 Noroeste 21 Noroeste 0 925.5 -- 23
2020-08-25 19:00:00 33.4 12 Oeste 28 Noroeste 0 925.4 -- 24
2020-08-25 18:00:00 34.3 13 Noroeste 26 Noroeste 0 925.2 -- 23
2020-08-25 17:00:00 34.2 14 Noroeste 28 Noroeste 0 925.5 -- 22
2020-08-25 16:00:00 33.8 15 Noroeste 24 Noroeste 0 925.8 -- 23
2020-08-25 15:00:00 32.7 5 Noroeste 18 Noroeste 0 926.5 -- 25
2020-08-25 14:00:00 30.7 9 Oeste 13 Noroeste 0 926.9 -- 31
2020-08-25 13:00:00 28.7 5 Oeste 11 Noroeste 0 927.2 -- 36
2020-08-25 12:00:00 25.9 4 Oeste 9 Noroeste 0 927.4 -- 45
2020-08-25 11:00:00 22 5 Oeste 9 Noroeste 0 927 -- 50
2020-08-25 10:00:00 18.1 0 Calma 5 Norte 0 926.7 -- 63
2020-08-25 09:00:00 14 0 Calma -- -- 0 926.5 -- 85
2020-08-25 08:00:00 10.2 0 Calma -- -- 0 926 -- 95
2020-08-25 07:00:00 10.7 0 Calma 4 Sur 0 925.7 -- 93
2020-08-25 06:00:00 11.2 5 Sur 9 Sur 0 925.8 -- 91
2020-08-25 05:00:00 12.2 0 Calma 4 Este 0 925.8 -- 91
2020-08-25 04:00:00 12.9 0 Calma -- -- 0 925.9 -- 91
2020-08-25 03:00:00 13.8 0 Calma 8 Nordeste 0 926 -- 87
2020-08-25 02:00:00 14.4 0 Calma 5 Este 0 926.2 -- 88
2020-08-25 01:00:00 15.6 2 Sudeste 5 Sudeste 0 926.3 -- 83
2020-08-25 00:00:00 17.2 3 Sur 9 Sur 0 926.2 -- 75
2020-08-24 23:00:00 18.9 5 Sur 8 Sur 0 926.2 -- 67
2020-08-24 22:00:00 20.9 7 Nordeste 13 Nordeste 0 925.8 -- 55
2020-08-24 21:00:00 26.2 4 Nordeste 9 Este 0 925.2 -- 50
2020-08-24 20:00:00 30.9 8 Este 11 Este 0 925.2 -- 27
2020-08-24 19:00:00 31.4 8 Este 15 Este 0 925.4 -- 23
2020-08-24 18:00:00 31.2 8 Este 15 Este 0 925.8 -- 24
2020-08-24 17:00:00 30.9 9 Nordeste 18 Nordeste 0 926.3 -- 25
2020-08-24 16:00:00 30.7 9 Este 18 Este 0 927 -- 27
2020-08-24 15:00:00 29.6 11 Este 26 Este 0 927.4 -- 29
2020-08-24 14:00:00 28.2 16 Nordeste 26 Este 0 927.7 -- 34
2020-08-24 13:00:00 26.3 14 Este 22 Este 0 928.2 -- 39
2020-08-24 12:00:00 23.8 13 Este 22 Este 0 928.7 -- 46
2020-08-24 11:00:00 20.6 10 Nordeste 17 Este 0 928.9 -- 57
2020-08-24 10:00:00 17.6 12 Este 17 Este 0 928.9 -- 69
2020-08-24 09:00:00 14.6 9 Este -- -- -- 929.1 -- 82
2020-08-24 08:00:00 10.6 5 Sudeste 8 Sudeste 0 928.7 -- 90
2020-08-24 07:00:00 10.6 4 Sur 8 Sur 0 928.6 -- 83
2020-08-24 06:00:00 11.6 0 Calma 5 Sudeste 0 928.9 -- 87
2020-08-24 05:00:00 11.2 2 Sur 13 Nordeste 0 928.8 -- 82
2020-08-24 04:00:00 13.1 8 Nordeste 11 Nordeste 0 929 -- 70
2020-08-24 03:00:00 14.1 3 Sudeste 9 Este 0 928.9 -- 62
2020-08-24 02:00:00 13.6 0 Calma 17 Este 0 929.3 -- 71
2020-08-24 01:00:00 15.9 12 Este 15 Este 0 929.3 -- 61
2020-08-24 00:00:00 18.1 11 Nordeste 13 Nordeste 0 929.5 -- 46
2020-08-23 23:00:00 18.2 2 Este 17 Norte 0 929.3 -- 53
2020-08-23 22:00:00 20.6 13 Norte 17 Norte 0 929 -- 42
2020-08-23 21:00:00 23.9 12 Nordeste 15 Nordeste 0 928.7 -- 39
2020-08-23 20:00:00 28.2 8 Nordeste 15 Nordeste 0 928.7 -- 29
2020-08-23 19:00:00 29.3 10 Nordeste 17 Nordeste 0 929 -- 24
2020-08-23 18:00:00 29.9 11 Nordeste 22 Nordeste 0 929.4 -- 23
2020-08-23 17:00:00 29.1 10 Norte 22 Nordeste 0 929.9 -- 24
2020-08-23 16:00:00 28.9 9 Nordeste 26 Este 0 930.6 -- 27
2020-08-23 15:00:00 28.3 13 Este 26 Este 0 931.1 -- 27
2020-08-23 14:00:00 27.1 14 Este 22 Este 0 931.6 -- 34
2020-08-23 13:00:00 25.6 15 Este 26 Nordeste 0 932.2 -- 39
2020-08-23 12:00:00 22.4 12 Norte 22 Nordeste 0 932.6 -- 53
2020-08-23 11:00:00 19.4 9 Nordeste 15 Norte 0 932.6 -- 66
2020-08-23 10:00:00 14.9 7 Norte 11 Norte 0 932.5 -- 85
2020-08-23 09:00:00 10.4 2 Noroeste -- -- -- 932.4 -- 88
2020-08-23 08:00:00 7.4 2 Sur 5 Sur 0 932.1 -- 96
2020-08-23 07:00:00 7.8 3 Norte 5 Norte 0 931.8 -- 95
2020-08-23 06:00:00 8.3 2 Sudeste 5 Sudeste 0 931.8 -- 94
2020-08-23 05:00:00 8.7 3 Este 9 Sur 0 932 -- 92
2020-08-23 04:00:00 9.7 2 Nordeste 9 Norte 0 932.3 -- 91
2020-08-23 03:00:00 10.8 6 Sudeste 9 Sudeste 0 932.5 -- 84
2020-08-23 02:00:00 11.7 3 Noroeste 9 Sudoeste 0 932.7 -- 82
2020-08-23 01:00:00 12.5 0 Calma 11 Sudeste 0 -- -- 79
2020-08-23 00:00:00 14.2 7 Oeste 9 Sudoeste 0 932.5 -- 69